Time;durP1;ratioP1;P1;durP2;ratioP2;P2;SDS_P1;SDS_P2;PMS_P1;PMS_P2;Temp;Humidity;BMP_temperature;BMP_pressure;BME280_temperature;BME280_humidity;BME280_pressure;Samples;Min_cycle;Max_cycle;Signal;HPM_P1;HPM_P2
2021/05/18 00:00:11;;;;;;;0.50;0.20;;;;;;;16.71;28.75;98007.19;4994282;28;20035;-72
2021/05/18 00:02:37;;;;;;;0.75;0.20;;;;;;;16.62;28.87;98005.75;4999986;28;20026;-72
2021/05/18 00:05:04;;;;;;;0.93;0.20;;;;;;;16.62;28.96;98007.59;4979934;28;20441;-72
2021/05/18 00:07:30;;;;;;;0.98;0.30;;;;;;;16.65;28.87;98008.00;4978801;28;20030;-72
2021/05/18 00:12:41;;;;;;;0.95;0.30;;;;;;;16.56;28.59;97998.69;4980266;28;20483;-73
2021/05/18 00:15:15;;;;;;;0.77;0.20;;;;;;;16.59;28.28;98003.56;4958365;28;20062;-72
2021/05/18 00:17:41;;;;;;;1.05;0.22;;;;;;;16.50;28.96;98012.59;4984402;28;20034;-73
2021/05/18 00:20:10;;;;;;;0.63;0.20;;;;;;;16.49;28.77;98011.78;4982530;28;20041;-72
2021/05/18 00:22:36;;;;;;;0.60;0.20;;;;;;;16.51;29.28;98012.38;4973520;28;20034;-72
2021/05/18 00:25:02;;;;;;;0.88;0.20;;;;;;;16.50;29.14;98009.97;4973499;28;20285;-73
2021/05/18 00:27:29;;;;;;;1.40;0.28;;;;;;;16.56;29.10;97998.69;4981896;28;20077;-72
2021/05/18 00:29:56;;;;;;;1.08;0.20;;;;;;;16.52;29.51;97995.66;4980103;28;20469;-72
2021/05/18 00:32:21;;;;;;;1.35;0.28;;;;;;;16.50;29.27;97983.72;4972913;28;20026;-72
2021/05/18 00:34:52;;;;;;;1.15;0.28;;;;;;;16.59;29.26;98002.72;4974879;28;20042;-72
2021/05/18 00:37:17;;;;;;;0.73;0.13;;;;;;;16.57;29.23;98002.13;4974990;28;20101;-72
2021/05/18 00:39:43;;;;;;;1.35;0.20;;;;;;;16.40;28.92;97991.97;4973319;28;20037;-72
2021/05/18 00:42:16;;;;;;;1.65;0.30;;;;;;;16.37;28.83;98005.47;4989064;28;20043;-72
2021/05/18 00:44:42;;;;;;;0.50;0.20;;;;;;;16.12;28.93;97981.59;4974670;28;20034;-73
2021/05/18 00:53:52;;;;;;;0.90;0.20;;;;;;;16.38;29.33;98001.84;4962600;28;20114;-72
2021/05/18 00:59:29;;;;;;;0.32;0.17;;;;;;;16.37;30.00;98009.91;4967576;28;20049;-73
2021/05/18 01:01:55;;;;;;;0.82;0.20;;;;;;;16.21;30.24;97988.28;4961920;28;20539;-73
2021/05/18 01:07:42;;;;;;;0.80;0.20;;;;;;;16.13;30.33;97983.19;4980842;28;20077;-72
2021/05/18 01:10:09;;;;;;;0.35;0.10;;;;;;;16.28;29.79;98002.25;4985140;28;20022;-72
2021/05/18 01:12:34;;;;;;;1.02;0.20;;;;;;;16.34;30.00;98009.31;4984051;28;20031;-72
2021/05/18 01:15:00;;;;;;;2.10;0.20;;;;;;;16.22;29.89;97984.63;4985239;28;20700;-72
2021/05/18 01:17:26;;;;;;;1.77;0.20;;;;;;;16.14;30.80;97985.63;4983796;28;20030;-72
2021/05/18 01:19:52;;;;;;;1.02;0.28;;;;;;;16.26;30.74;98006.88;4960462;28;20033;-72
2021/05/18 01:22:17;;;;;;;0.93;0.17;;;;;;;16.14;31.09;97980.38;4983189;28;20022;-72
2021/05/18 01:24:43;;;;;;;0.57;0.10;;;;;;;16.31;30.77;98011.50;4979177;28;20490;-73
2021/05/18 01:27:08;;;;;;;0.70;0.25;;;;;;;16.29;30.34;98019.59;4983846;28;20030;-72
2021/05/18 01:29:34;;;;;;;1.25;0.30;;;;;;;16.26;30.99;98006.03;4986827;28;20190;-72
2021/05/18 01:32:00;;;;;;;1.25;0.30;;;;;;;16.30;31.24;98002.84;4975460;28;20041;-72
2021/05/18 01:34:26;;;;;;;1.67;0.30;;;;;;;16.32;31.63;98010.53;4999670;28;20026;-72
2021/05/18 01:36:52;;;;;;;1.80;0.20;;;;;;;16.25;32.10;98012.31;4977302;28;20112;-72
2021/05/18 01:44:31;;;;;;;1.08;0.20;;;;;;;16.10;31.36;98007.22;4980053;28;20080;-72
2021/05/18 01:46:56;;;;;;;0.30;0.10;;;;;;;15.89;31.41;97987.13;4996185;28;20509;-72
2021/05/18 01:49:22;;;;;;;0.90;0.20;;;;;;;16.13;30.97;98019.91;4995358;28;20102;-72
2021/05/18 01:51:50;;;;;;;0.63;0.10;;;;;;;16.10;30.95;98021.13;4974380;28;20037;-72
2021/05/18 01:54:23;;;;;;;1.05;0.20;;;;;;;16.10;30.46;98031.59;4983941;28;20022;-72
2021/05/18 01:57:05;;;;;;;1.55;0.35;;;;;;;16.06;30.90;98037.44;4980721;28;20034;-73
2021/05/18 01:59:33;;;;;;;1.55;0.20;;;;;;;16.09;30.90;98039.66;4968476;28;20022;-72
2021/05/18 02:02:02;;;;;;;0.52;0.20;;;;;;;16.02;30.99;98038.81;4983079;28;20026;-73
2021/05/18 02:04:35;;;;;;;1.15;0.20;;;;;;;15.99;30.50;98055.75;4982851;28;20030;-73
2021/05/18 02:07:10;;;;;;;1.48;0.30;;;;;;;16.04;30.69;98044.69;4980851;28;20113;-72
2021/05/18 02:09:37;;;;;;;1.15;0.30;;;;;;;16.12;30.96;98052.41;4984173;28;20026;-72
2021/05/18 02:12:03;;;;;;;0.40;0.10;;;;;;;15.99;30.79;98036.56;4999885;28;20026;-72
2021/05/18 02:14:29;;;;;;;0.43;0.10;;;;;;;16.09;30.67;98044.91;4980623;28;20118;-72
2021/05/18 02:17:03;;;;;;;1.55;0.22;;;;;;;16.20;30.79;98054.06;4983280;28;20533;-72
2021/05/18 02:25:03;;;;;;;0.52;0.20;;;;;;;16.05;30.98;98023.50;4983594;28;20153;-72
2021/05/18 02:27:30;;;;;;;1.20;0.30;;;;;;;16.02;30.46;98033.56;4992933;28;20542;-72
2021/05/18 02:29:59;;;;;;;0.93;0.10;;;;;;;16.02;30.77;98041.44;4991215;28;20277;-73
2021/05/18 02:32:29;;;;;;;0.60;0.17;;;;;;;15.93;30.49;98044.22;4974123;28;20454;-72
2021/05/18 02:34:54;;;;;;;0.65;0.17;;;;;;;15.92;30.89;98039.97;4971531;28;20063;-72
2021/05/18 02:37:20;;;;;;;1.15;0.20;;;;;;;16.00;30.41;98044.25;4993821;28;20030;-73
2021/05/18 02:39:50;;;;;;;0.85;0.20;;;;;;;16.03;30.32;98038.63;5001488;28;20034;-72
2021/05/18 02:42:16;;;;;;;0.35;0.10;;;;;;;16.03;30.30;98032.59;4994232;28;20022;-72
2021/05/18 02:44:59;;;;;;;0.93;0.20;;;;;;;15.95;30.40;98042.22;4984719;28;20038;-72
2021/05/18 02:50:09;;;;;;;0.60;0.10;;;;;;;15.90;30.24;98025.47;4983836;28;20092;-72
2021/05/18 02:52:38;;;;;;;1.15;0.20;;;;;;;15.83;30.80;98038.50;4984733;28;20046;-73
2021/05/18 02:55:04;;;;;;;1.23;0.20;;;;;;;15.68;31.35;98016.78;4987079;28;20034;-72
2021/05/18 02:57:34;;;;;;;0.95;0.10;;;;;;;15.89;31.33;98034.31;4984814;28;20018;-72
2021/05/18 03:00:04;;;;;;;0.30;0.10;;;;;;;15.92;31.63;98039.19;4981847;28;20504;-73
2021/05/18 03:02:30;;;;;;;1.30;0.22;;;;;;;15.98;31.61;98041.03;4999716;28;20037;-72
2021/05/18 03:04:55;;;;;;;1.25;0.10;;;;;;;15.91;31.66;98038.34;4981765;28;20422;-72
2021/05/18 03:07:20;;;;;;;0.50;0.10;;;;;;;15.91;32.13;98027.84;4981887;28;20085;-72
2021/05/18 03:09:46;;;;;;;0.70;0.20;;;;;;;15.99;31.77;98034.78;4977744;28;20030;-72
2021/05/18 03:12:13;;;;;;;0.90;0.30;;;;;;;15.88;32.18;98045.78;4982309;28;20030;-72
2021/05/18 03:14:38;;;;;;;0.80;0.20;;;;;;;15.73;32.42;98027.53;4983021;28;20030;-72
2021/05/18 03:17:04;;;;;;;1.13;0.17;;;;;;;15.56;32.40;97999.00;4995988;28;20553;-72
2021/05/18 03:19:29;;;;;;;0.38;0.20;;;;;;;15.63;32.66;97995.63;4983591;28;20393;-72
2021/05/18 03:21:55;;;;;;;1.35;0.20;;;;;;;15.74;32.37;98019.50;4996455;28;20023;-72
2021/05/18 03:24:21;;;;;;;1.63;0.22;;;;;;;15.75;32.97;98034.25;4996342;28;20030;-72
2021/05/18 03:26:49;;;;;;;1.15;0.22;;;;;;;15.48;33.45;98037.63;4978463;28;20054;-73
2021/05/18 03:29:37;;;;;;;0.85;0.20;;;;;;;15.56;33.13;98056.63;4974715;28;20037;-72
2021/05/18 03:34:47;;;;;;;0.47;0.10;;;;;;;15.61;33.16;98065.75;4975807;28;20109;-72
2021/05/18 03:39:45;;;;;;;1.20;0.20;;;;;;;15.52;33.62;98054.59;4985062;28;20057;-72
2021/05/18 03:42:22;;;;;;;1.33;0.25;;;;;;;15.51;34.24;98055.59;4978198;28;20950;-72
2021/05/18 03:45:15;;;;;;;1.83;0.28;;;;;;;15.58;34.80;98062.50;4968823;28;20026;-72
2021/05/18 03:58:37;;;;;;;0.82;0.20;;;;;;;15.33;35.93;98067.34;4993728;28;20045;-74
2021/05/18 04:17:46;;;;;;;1.02;0.20;;;;;;;15.13;35.95;98108.22;4980039;28;20060;-73
2021/05/18 04:20:23;;;;;;;0.85;0.10;;;;;;;15.24;35.96;98118.25;4982333;28;20058;-73
2021/05/18 04:52:21;;;;;;;1.05;0.30;;;;;;;14.79;40.74;98126.19;4972949;28;20070;-71
2021/05/18 05:00:09;;;;;;;0.60;0.15;;;;;;;14.77;42.77;98145.72;4992468;28;20102;-71
2021/05/18 05:08:47;;;;;;;2.88;0.50;;;;;;;14.52;40.47;98140.72;4987499;28;20053;-72
2021/05/18 05:16:03;;;;;;;1.63;0.40;;;;;;;14.59;42.55;98156.56;4980643;28;20049;-72
2021/05/18 05:18:29;;;;;;;1.88;0.30;;;;;;;14.43;43.86;98139.19;4984328;28;20026;-72
2021/05/18 05:20:54;;;;;;;0.95;0.28;;;;;;;14.33;44.54;98129.03;4992355;28;20033;-72
2021/05/18 05:23:20;;;;;;;1.58;0.43;;;;;;;14.41;44.35;98142.00;4982132;28;20052;-73
2021/05/18 05:25:45;;;;;;;2.00;0.50;;;;;;;14.55;43.12;98136.97;4985526;28;20042;-72
2021/05/18 05:28:11;;;;;;;4.38;1.63;;;;;;;14.62;41.85;98127.41;4996787;28;20461;-71
2021/05/18 05:30:36;;;;;;;7.45;3.28;;;;;;;14.48;42.93;98108.09;4983914;28;20026;-71
2021/05/18 05:33:02;;;;;;;20.08;7.15;;;;;;;14.59;43.46;98125.16;4994434;28;20117;-72
2021/05/18 05:35:28;;;;;;;18.98;7.10;;;;;;;14.57;44.54;98129.72;4998620;28;20022;-72
2021/05/18 05:37:54;;;;;;;23.77;7.75;;;;;;;14.26;44.13;98115.03;4984584;28;20121;-73
2021/05/18 05:40:20;;;;;;;30.42;7.93;;;;;;;14.14;43.22;98132.97;5002988;28;20042;-71
2021/05/18 05:42:46;;;;;;;7.70;2.90;;;;;;;14.32;41.94;98130.00;4986200;28;20081;-71
2021/05/18 05:45:12;;;;;;;13.50;4.20;;;;;;;14.31;40.63;98117.09;4994008;28;20050;-68
2021/05/18 05:47:37;;;;;;;7.97;3.25;;;;;;;14.56;40.11;98139.38;4980634;28;20036;-69
2021/05/18 05:50:04;;;;;;;12.75;3.80;;;;;;;14.54;39.68;98136.13;4980493;28;20030;-68
2021/05/18 05:52:32;;;;;;;9.38;4.80;;;;;;;14.61;40.12;98128.41;4973722;28;20035;-69
2021/05/18 05:54:58;;;;;;;9.90;4.10;;;;;;;14.68;39.58;98145.00;4974459;28;20097;-68
2021/05/18 05:57:23;;;;;;;13.63;5.03;;;;;;;14.69;38.77;98145.78;4985868;28;20086;-69
2021/05/18 05:59:48;;;;;;;86.72;8.60;;;;;;;14.61;38.09;98139.66;4982592;28;20576;-68
2021/05/18 06:02:14;;;;;;;21.40;4.75;;;;;;;14.74;37.08;98146.06;4990593;28;20065;-68
2021/05/18 06:04:39;;;;;;;10.90;3.70;;;;;;;14.68;37.12;98152.03;4985866;28;20023;-68
2021/05/18 06:07:05;;;;;;;20.88;6.82;;;;;;;14.73;36.87;98157.50;4989919;28;20022;-69
2021/05/18 06:09:32;;;;;;;10.18;3.28;;;;;;;14.75;37.15;98164.22;4986306;28;20113;-68
2021/05/18 06:12:13;;;;;;;9.25;3.13;;;;;;;14.79;36.81;98169.88;4986950;28;20041;-68
2021/05/18 06:47:32;;;;;;;39.40;17.55;;;;;;;15.11;41.07;98139.88;4977504;28;20061;-68
2021/05/18 06:52:46;;;;;;;40.95;16.80;;;;;;;15.08;36.53;98153.31;4980814;28;20084;-68
2021/05/18 06:55:15;;;;;;;103.28;38.45;;;;;;;14.90;36.40;98151.09;4989980;28;20045;-68
2021/05/18 06:57:44;;;;;;;154.05;44.25;;;;;;;14.89;36.67;98144.22;4984154;28;20077;-69
2021/05/18 07:00:20;;;;;;;40.50;15.97;;;;;;;14.98;36.29;98143.13;4992449;28;20038;-69
2021/05/18 07:02:47;;;;;;;32.33;15.48;;;;;;;15.00;35.41;98145.56;4966680;28;20576;-69
2021/05/18 07:10:34;;;;;;;31.80;13.75;;;;;;;14.82;35.15;98142.53;4981598;28;20045;-68
2021/05/18 07:13:00;;;;;;;63.63;28.77;;;;;;;14.92;34.92;98127.34;4985769;28;20034;-69
2021/05/18 07:15:27;;;;;;;167.05;63.80;;;;;;;15.01;34.52;98123.63;4993777;28;20030;-69
2021/05/18 07:17:53;;;;;;;53.08;24.42;;;;;;;14.97;33.86;98115.34;4979471;28;20500;-68
2021/05/18 07:20:20;;;;;;;59.47;20.70;;;;;;;15.05;33.95;98131.94;4989137;28;20049;-68
2021/05/18 07:22:45;;;;;;;96.78;32.47;;;;;;;15.19;34.01;98129.25;4979310;28;20073;-68
2021/05/18 07:25:11;;;;;;;136.90;39.78;;;;;;;15.34;33.71;98138.88;4990141;28;20085;-68
2021/05/18 07:27:36;;;;;;;46.90;22.02;;;;;;;15.42;33.42;98138.75;4991339;28;20030;-68
2021/05/18 07:30:03;;;;;;;44.92;19.23;;;;;;;15.46;33.74;98140.00;4978935;28;20026;-69
2021/05/18 07:32:28;;;;;;;39.13;17.92;;;;;;;15.56;33.50;98140.47;4977175;28;20034;-69
2021/05/18 07:34:55;;;;;;;220.80;49.05;;;;;;;15.23;33.56;98095.66;4973582;28;20640;-69
2021/05/18 07:37:21;;;;;;;56.00;20.33;;;;;;;15.51;33.69;98128.94;4981283;28;20380;-69
2021/05/18 07:39:47;;;;;;;42.60;15.05;;;;;;;15.44;33.74;98123.66;4983853;28;20038;-69
2021/05/18 07:42:12;;;;;;;46.45;18.20;;;;;;;15.57;33.93;98107.25;4995762;28;20029;-69
2021/05/18 07:44:38;;;;;;;28.50;10.40;;;;;;;15.98;33.05;98111.00;4983756;28;20022;-68
2021/05/18 07:47:03;;;;;;;52.60;20.23;;;;;;;16.23;33.44;98108.75;4968951;28;20093;-69
2021/05/18 08:05:32;;;;;;;1.10;0.38;;;;;;;17.26;30.88;98070.13;4979953;28;20109;-68
2021/05/18 08:07:58;;;;;;;0.75;0.13;;;;;;;17.59;31.22;98103.50;4978747;28;20464;-67
2021/05/18 08:10:33;;;;;;;1.65;0.40;;;;;;;17.64;30.38;98079.25;4974058;28;20105;-68
2021/05/18 08:12:58;;;;;;;1.08;0.20;;;;;;;17.75;30.01;98083.91;4964276;28;20036;-67
2021/05/18 08:46:34;;;;;;;1.85;0.30;;;;;;;17.99;28.40;98100.06;4979643;28;20127;-68
2021/05/18 08:59:20;;;;;;;20.15;8.77;;;;;;;20.00;25.34;98103.28;4978358;28;20056;-69
2021/05/18 10:36:35;;;;;;;3.20;0.30;;;;;;;21.27;21.74;98019.84;4984690;28;20034;-68
2021/05/18 10:39:36;;;;;;;1.60;0.40;;;;;;;21.08;22.31;98021.75;4978574;28;20868;-68
2021/05/18 10:42:11;;;;;;;1.75;0.30;;;;;;;21.33;23.39;98015.47;4942908;28;20058;-68
2021/05/18 10:44:56;;;;;;;1.13;0.35;;;;;;;21.44;22.19;98001.44;4977770;28;20042;-69
2021/05/18 10:47:45;;;;;;;1.95;0.47;;;;;;;21.46;22.86;97994.13;4978870;28;21003;-69
2021/05/18 10:50:12;;;;;;;1.75;0.40;;;;;;;20.93;24.16;98001.81;4995296;28;20022;-70
2021/05/18 10:52:38;;;;;;;1.88;0.40;;;;;;;20.71;23.63;97990.16;4986842;28;20034;-67
2021/05/18 10:55:06;;;;;;;1.83;0.52;;;;;;;20.80;23.76;98004.66;4971183;28;20056;-71
2021/05/18 10:57:33;;;;;;;2.70;0.50;;;;;;;20.87;24.17;98000.09;4994180;28;20074;-72
2021/05/18 11:00:00;;;;;;;2.42;0.50;;;;;;;21.05;23.29;97993.13;4980085;28;20117;-69
2021/05/18 11:02:29;;;;;;;2.30;0.50;;;;;;;21.44;23.63;97985.56;4993914;28;20030;-69
2021/05/18 11:05:06;;;;;;;1.80;0.60;;;;;;;21.37;23.91;97987.53;4990407;28;20101;-68
2021/05/18 11:07:36;;;;;;;4.88;0.50;;;;;;;21.48;23.78;97977.00;4990693;28;20811;-68
2021/05/18 11:10:20;;;;;;;1.88;0.55;;;;;;;21.68;24.41;97974.00;4973674;28;20031;-69
2021/05/18 11:12:51;;;;;;;2.55;0.63;;;;;;;21.64;23.02;97962.25;4999855;28;20061;-68
2021/05/18 11:15:18;;;;;;;4.93;0.55;;;;;;;21.56;23.29;97957.31;4989046;28;20073;-68
2021/05/18 11:17:49;;;;;;;3.47;0.60;;;;;;;21.52;23.65;97945.59;4980294;28;20106;-67
2021/05/18 11:25:46;;;;;;;2.47;0.70;;;;;;;21.82;24.10;97948.06;4994470;28;20439;-67
2021/05/18 11:28:23;;;;;;;3.38;0.50;;;;;;;21.80;21.28;97955.44;4983550;28;20034;-68
2021/05/18 11:30:55;;;;;;;2.65;0.60;;;;;;;21.94;20.42;97937.47;4984532;28;20579;-67
2021/05/18 11:33:28;;;;;;;1.85;0.50;;;;;;;22.04;21.19;97929.72;4979046;28;20049;-68
2021/05/18 11:36:01;;;;;;;2.10;0.50;;;;;;;21.94;21.27;97929.53;4984178;28;20483;-69
2021/05/18 11:38:28;;;;;;;2.20;0.40;;;;;;;21.75;21.74;97920.13;4984513;28;20419;-68
2021/05/18 11:40:53;;;;;;;3.55;0.50;;;;;;;21.89;19.93;97926.78;4987974;28;20030;-67
2021/05/18 11:43:25;;;;;;;2.90;0.60;;;;;;;21.65;20.33;97905.66;4998880;28;20046;-68
2021/05/18 11:46:09;;;;;;;1.92;0.30;;;;;;;21.93;20.70;97919.97;4982893;28;20022;-69
2021/05/18 11:48:35;;;;;;;1.98;0.45;;;;;;;21.93;19.89;97921.81;4985047;28;20030;-68
2021/05/18 11:51:12;;;;;;;1.52;0.40;;;;;;;21.77;20.03;97923.34;4967656;28;20034;-68
2021/05/18 11:53:44;;;;;;;3.42;0.50;;;;;;;21.87;20.27;97913.78;4982542;28;20026;-68
2021/05/18 11:56:16;;;;;;;2.90;0.68;;;;;;;21.78;20.89;97924.97;4996751;28;20071;-68
2021/05/18 11:58:42;;;;;;;2.33;0.50;;;;;;;21.92;19.40;97918.34;4986867;28;20691;-69
2021/05/18 12:01:08;;;;;;;3.50;0.50;;;;;;;21.85;21.43;97901.84;5002915;28;20125;-67
2021/05/18 12:03:35;;;;;;;6.18;1.05;;;;;;;21.93;20.89;97916.53;4981675;28;20064;-69
2021/05/18 12:06:01;;;;;;;1.40;0.40;;;;;;;22.04;22.22;97903.25;4984489;28;20181;-67
2021/05/18 12:08:31;;;;;;;2.38;0.50;;;;;;;22.42;22.06;97903.69;4980914;28;20034;-68
2021/05/18 12:11:13;;;;;;;2.25;0.60;;;;;;;22.64;22.13;97890.56;4987425;28;20035;-69
2021/05/18 12:13:39;;;;;;;2.10;0.40;;;;;;;23.01;21.25;97893.50;4987360;28;20077;-67
2021/05/18 12:16:09;;;;;;;3.30;0.60;;;;;;;22.84;21.70;97887.41;4978688;28;20434;-67
2021/05/18 12:18:36;;;;;;;2.17;0.65;;;;;;;22.76;19.60;97893.09;4989613;28;20037;-68
2021/05/18 12:21:19;;;;;;;4.35;0.60;;;;;;;22.62;20.78;97898.72;4983951;28;20049;-68
2021/05/18 12:24:01;;;;;;;3.42;0.63;;;;;;;22.42;21.92;97885.16;4989233;28;20106;-68
2021/05/18 12:26:27;;;;;;;4.85;1.00;;;;;;;22.35;21.74;97876.56;4982968;28;20034;-68
2021/05/18 12:29:01;;;;;;;5.20;0.88;;;;;;;22.42;21.38;97869.25;4990508;28;20061;-68
2021/05/18 12:31:29;;;;;;;2.95;0.73;;;;;;;22.10;21.96;97859.13;4990215;28;20038;-70
2021/05/18 12:33:55;;;;;;;4.57;1.02;;;;;;;22.08;22.76;97875.25;4969788;28;20331;-69
2021/05/18 12:36:20;;;;;;;4.15;0.70;;;;;;;22.05;21.00;97896.91;4982039;28;20026;-68
2021/05/18 12:39:08;;;;;;;3.60;0.80;;;;;;;22.30;22.38;97900.28;4986410;28;20093;-69
2021/05/18 12:41:56;;;;;;;1.92;0.65;;;;;;;22.25;21.12;97875.31;4986386;28;20794;-67
2021/05/18 12:44:24;;;;;;;1.65;0.50;;;;;;;22.21;20.21;97873.38;4981882;28;20113;-68
2021/05/18 12:47:04;;;;;;;2.40;0.70;;;;;;;22.36;20.90;97881.63;4981346;28;20041;-69
2021/05/18 12:49:37;;;;;;;3.50;1.08;;;;;;;22.17;20.37;97877.53;4999251;28;20184;-69
2021/05/18 12:52:06;;;;;;;3.88;0.80;;;;;;;22.25;21.28;97879.78;4993260;28;20042;-67
2021/05/18 12:54:43;;;;;;;4.93;0.90;;;;;;;22.32;21.00;97880.47;4987546;28;20625;-69
2021/05/18 12:57:10;;;;;;;3.33;0.80;;;;;;;22.34;21.53;97880.22;4980481;28;20034;-69
2021/05/18 13:00:13;;;;;;;6.95;0.95;;;;;;;22.08;20.97;97854.06;4997042;28;20113;-68
2021/05/18 13:02:46;;;;;;;2.45;0.60;;;;;;;22.26;20.68;97894.66;4982085;28;20022;-69
2021/05/18 13:05:16;;;;;;;3.35;0.90;;;;;;;22.26;20.82;97899.97;4975070;28;20728;-68
2021/05/18 13:07:43;;;;;;;3.47;0.93;;;;;;;22.31;20.98;97888.66;4978677;28;20038;-69
2021/05/18 13:10:25;;;;;;;4.55;1.10;;;;;;;22.44;21.89;97899.75;4980095;28;20066;-69
2021/05/18 13:13:00;;;;;;;2.75;1.00;;;;;;;22.20;21.71;97891.09;4977821;28;20049;-69
2021/05/18 13:15:26;;;;;;;4.03;1.00;;;;;;;22.38;21.72;97890.13;4980117;28;20033;-69
2021/05/18 13:17:56;;;;;;;4.85;1.00;;;;;;;22.47;20.90;97895.84;4982288;28;20141;-68
2021/05/18 13:20:22;;;;;;;4.65;1.20;;;;;;;22.51;20.15;97891.66;4996067;28;20040;-69
2021/05/18 13:22:54;;;;;;;3.80;0.98;;;;;;;22.64;21.57;97895.84;4979266;28;20079;-68
2021/05/18 13:28:04;;;;;;;4.25;0.90;;;;;;;22.97;19.46;97871.19;4976310;28;20057;-68
2021/05/18 13:30:30;;;;;;;3.85;0.93;;;;;;;22.78;20.01;97860.03;4997239;28;20030;-69
2021/05/18 13:32:56;;;;;;;4.28;1.02;;;;;;;22.71;20.43;97846.16;4975002;28;20042;-67
2021/05/18 13:35:25;;;;;;;5.00;1.05;;;;;;;22.85;20.27;97836.00;4980188;28;20106;-69
2021/05/18 13:37:51;;;;;;;7.38;1.80;;;;;;;22.95;20.34;97819.47;4981506;28;20526;-69
2021/05/18 13:40:19;;;;;;;4.15;1.10;;;;;;;22.85;20.18;97814.81;4981494;28;20154;-70
2021/05/18 13:42:49;;;;;;;3.90;1.27;;;;;;;22.77;20.75;97817.88;4976501;28;20026;-66
2021/05/18 13:45:15;;;;;;;5.70;1.05;;;;;;;22.70;20.81;97820.69;4966921;28;20435;-67
2021/05/18 13:47:40;;;;;;;3.67;1.60;;;;;;;22.73;19.45;97817.56;4982997;28;20049;-66
2021/05/18 13:50:06;;;;;;;4.18;1.45;;;;;;;22.95;19.40;97820.25;4981153;28;20815;-67
2021/05/18 13:52:31;;;;;;;4.72;1.40;;;;;;;22.98;20.46;97805.69;4980228;28;20034;-67
2021/05/18 13:54:57;;;;;;;6.63;1.10;;;;;;;22.71;19.76;97806.41;4980048;28;20081;-67
2021/05/18 13:57:22;;;;;;;4.50;1.00;;;;;;;22.91;19.32;97789.16;4981463;28;20038;-67
2021/05/18 13:59:51;;;;;;;3.63;1.02;;;;;;;22.83;20.56;97782.44;4982801;28;20058;-68
2021/05/18 14:02:17;;;;;;;5.13;1.30;;;;;;;22.83;19.69;97775.31;4997171;28;20057;-68
2021/05/18 14:04:43;;;;;;;3.42;1.10;;;;;;;22.86;19.77;97778.53;4995480;28;20108;-67
2021/05/18 14:07:24;;;;;;;4.63;1.30;;;;;;;22.79;18.59;97771.53;4976140;28;20585;-68
2021/05/18 14:09:50;;;;;;;4.28;1.10;;;;;;;23.00;19.43;97785.09;4979713;28;20160;-68
2021/05/18 14:12:15;;;;;;;5.55;2.00;;;;;;;23.07;18.09;97764.50;4976343;28;20558;-68
2021/05/18 14:14:41;;;;;;;3.17;1.05;;;;;;;23.14;18.58;97764.31;4981953;28;20419;-68
2021/05/18 14:17:06;;;;;;;5.43;1.20;;;;;;;23.08;17.95;97729.00;4979418;28;20042;-68
2021/05/18 14:19:31;;;;;;;4.18;1.02;;;;;;;23.30;19.14;97738.78;4967263;28;20065;-68
2021/05/18 14:21:57;;;;;;;2.55;0.90;;;;;;;23.22;19.11;97735.53;4975473;28;20029;-68
2021/05/18 14:24:34;;;;;;;4.85;1.10;;;;;;;22.98;19.37;97734.13;4980213;28;20038;-68
2021/05/18 14:27:00;;;;;;;4.47;1.00;;;;;;;23.09;19.53;97753.66;4982755;28;20026;-67
2021/05/18 14:29:25;;;;;;;3.17;1.00;;;;;;;22.97;18.81;97736.00;4973146;28;20113;-67
2021/05/18 14:31:53;;;;;;;4.00;1.10;;;;;;;23.25;18.66;97731.56;4992197;28;20096;-68
2021/05/18 14:34:19;;;;;;;3.95;1.13;;;;;;;23.02;19.45;97719.38;4974175;28;20022;-68
2021/05/18 14:36:45;;;;;;;4.35;1.60;;;;;;;22.82;19.78;97725.22;4995734;28;20083;-68
2021/05/18 14:39:11;;;;;;;4.15;1.30;;;;;;;22.89;19.92;97727.66;4992863;28;20391;-68
2021/05/18 14:44:23;;;;;;;3.15;0.93;;;;;;;22.32;18.95;97715.50;4992282;28;20093;-68
2021/05/18 14:47:02;;;;;;;3.53;1.00;;;;;;;22.26;19.11;97756.97;4962922;28;20046;-68
2021/05/18 14:55:07;;;;;;;5.07;1.10;;;;;;;21.87;20.85;97767.44;4974769;28;20092;-68
2021/05/18 14:57:32;;;;;;;5.28;1.20;;;;;;;21.67;20.76;97766.03;4977342;28;20022;-67
2021/05/18 14:59:58;;;;;;;4.40;0.80;;;;;;;21.77;20.34;97788.41;4977277;28;20026;-68
2021/05/18 15:02:23;;;;;;;2.65;0.80;;;;;;;21.72;20.96;97783.03;4978241;28;20105;-68
2021/05/18 15:04:49;;;;;;;3.63;0.70;;;;;;;21.67;20.54;97791.69;4978847;28;20027;-68
2021/05/18 15:07:14;;;;;;;3.90;0.80;;;;;;;21.54;20.41;97789.31;4972060;28;21066;-69
2021/05/18 15:09:40;;;;;;;2.78;0.90;;;;;;;21.43;20.98;97778.53;4997943;28;20633;-69
2021/05/18 15:12:07;;;;;;;4.13;0.65;;;;;;;21.51;21.64;97809.09;4978853;28;20518;-69
2021/05/18 15:14:32;;;;;;;2.50;0.70;;;;;;;21.42;20.80;97803.34;4977952;28;20770;-68
2021/05/18 15:16:58;;;;;;;3.00;0.77;;;;;;;21.34;21.04;97798.44;4988659;28;20041;-68
2021/05/18 15:19:25;;;;;;;2.38;0.70;;;;;;;21.34;21.17;97803.72;4972087;28;20026;-68
2021/05/18 15:21:51;;;;;;;3.30;0.70;;;;;;;21.35;20.52;97810.59;4979597;28;20726;-68
2021/05/18 15:24:17;;;;;;;4.90;0.93;;;;;;;21.23;20.07;97810.63;4992517;28;20053;-68
2021/05/18 15:26:42;;;;;;;2.70;0.70;;;;;;;21.16;19.94;97786.16;4978092;28;20586;-68
2021/05/18 15:29:08;;;;;;;2.08;0.60;;;;;;;21.16;19.83;97786.16;4972219;28;20491;-69
2021/05/18 15:31:33;;;;;;;2.75;0.60;;;;;;;21.19;19.98;97788.34;4965739;28;20136;-68
2021/05/18 15:33:59;;;;;;;3.28;0.50;;;;;;;21.03;19.63;97763.44;4992729;28;20079;-69
2021/05/18 15:36:25;;;;;;;3.10;0.80;;;;;;;21.15;19.59;97787.19;4974911;28;20026;-69
2021/05/18 15:38:52;;;;;;;2.10;0.60;;;;;;;21.06;19.69;97788.59;4990139;28;20030;-69
2021/05/18 15:41:18;;;;;;;4.45;0.77;;;;;;;21.12;20.05;97792.97;4976668;28;20117;-69
2021/05/18 15:43:46;;;;;;;3.92;0.70;;;;;;;21.12;20.40;97804.34;4955326;28;20153;-69
2021/05/18 15:46:12;;;;;;;3.97;0.80;;;;;;;21.19;21.37;97795.47;4976303;28;20065;-69
2021/05/18 15:48:38;;;;;;;4.05;1.00;;;;;;;21.21;21.35;97793.38;4995560;28;20037;-70
2021/05/18 15:51:03;;;;;;;3.83;1.67;;;;;;;21.17;21.15;97800.97;4975713;28;20722;-69
2021/05/18 15:53:29;;;;;;;3.17;0.90;;;;;;;21.04;20.58;97772.97;4979873;28;20030;-69
2021/05/18 15:55:54;;;;;;;3.47;0.80;;;;;;;21.29;22.34;97779.81;4974754;28;20278;-69
2021/05/18 15:58:20;;;;;;;3.85;0.70;;;;;;;21.27;21.21;97780.06;4995775;28;20026;-68
2021/05/18 16:00:48;;;;;;;6.57;0.80;;;;;;;21.21;21.59;97782.81;4985315;28;20030;-69
2021/05/18 16:03:15;;;;;;;2.75;0.80;;;;;;;21.31;21.17;97788.31;4976809;28;20026;-70
2021/05/18 16:05:40;;;;;;;4.10;0.70;;;;;;;21.27;21.30;97776.59;4992655;28;20045;-69
2021/05/18 16:10:50;;;;;;;4.00;0.68;;;;;;;21.01;21.70;97772.63;4978720;28;20112;-70
2021/05/18 16:13:15;;;;;;;2.85;0.80;;;;;;;20.96;21.82;97791.03;4994623;28;20042;-69
2021/05/18 16:15:41;;;;;;;4.18;0.80;;;;;;;20.89;21.95;97775.28;4977840;28;20070;-71
2021/05/18 16:18:06;;;;;;;3.30;0.70;;;;;;;21.04;21.63;97791.47;4978469;28;20038;-68
2021/05/18 16:20:31;;;;;;;4.15;0.90;;;;;;;21.00;22.62;97784.25;4995219;28;20468;-68
2021/05/18 16:22:57;;;;;;;2.53;0.70;;;;;;;21.01;22.62;97804.34;4996042;28;20053;-69
2021/05/18 16:25:22;;;;;;;4.03;0.80;;;;;;;20.83;23.00;97789.44;4993499;28;20502;-68
2021/05/18 16:27:48;;;;;;;3.67;0.68;;;;;;;20.90;22.69;97806.78;4977487;28;20035;-68
2021/05/18 16:30:14;;;;;;;6.45;0.82;;;;;;;20.88;23.00;97808.84;4973905;28;20030;-69
2021/05/18 16:32:39;;;;;;;4.03;0.80;;;;;;;20.77;23.96;97814.13;4997620;28;20062;-73
2021/05/18 16:35:05;;;;;;;5.00;0.82;;;;;;;20.74;24.32;97818.81;4979410;28;20438;-70
2021/05/18 16:37:31;;;;;;;5.43;1.00;;;;;;;20.58;24.44;97810.75;4990202;28;20038;-69
2021/05/18 16:39:57;;;;;;;6.00;1.00;;;;;;;20.58;24.04;97823.97;4981777;28;20042;-67
2021/05/18 16:42:23;;;;;;;3.42;0.70;;;;;;;20.61;23.70;97818.25;4996888;28;20032;-68
2021/05/18 16:44:48;;;;;;;3.75;0.90;;;;;;;20.62;24.53;97830.41;4984251;28;20034;-70
2021/05/18 16:47:14;;;;;;;3.47;0.80;;;;;;;20.57;24.99;97830.25;4991151;28;20069;-69
2021/05/18 16:49:39;;;;;;;3.97;0.85;;;;;;;20.53;26.72;97820.19;4980700;28;20050;-71
2021/05/18 16:52:05;;;;;;;6.13;0.77;;;;;;;20.55;24.60;97819.94;4994484;28;20028;-68
2021/05/18 16:54:30;;;;;;;4.90;0.98;;;;;;;20.62;24.41;97835.69;4982092;28;20034;-69
2021/05/18 16:56:56;;;;;;;3.55;0.82;;;;;;;20.67;24.79;97833.19;4978364;28;20038;-69